createdAt,value
2023-01-17T00:00:53.891Z,40.16
2023-01-17T00:03:20.973Z,40.17
2023-01-17T00:05:48.035Z,40.25
2023-01-17T00:08:15.149Z,40.22
2023-01-17T00:10:42.221Z,40.24
2023-01-17T00:13:09.312Z,40.29
2023-01-17T00:15:37.899Z,40.34
2023-01-17T00:18:05.028Z,40.41
2023-01-17T00:20:32.655Z,40.49
2023-01-17T00:22:59.857Z,40.29
2023-01-17T00:25:30.890Z,40.35
2023-01-17T00:27:58.284Z,40.57
2023-01-17T00:30:25.803Z,40.46
2023-01-17T00:32:54.245Z,40.37
2023-01-17T00:35:22.852Z,40.13
2023-01-17T00:37:59.931Z,40.22
2023-01-17T00:40:27.109Z,40.25
2023-01-17T00:42:54.182Z,40.29
2023-01-17T00:45:21.253Z,40.17
2023-01-17T00:47:48.356Z,40.12
2023-01-17T00:50:17.064Z,40.25
2023-01-17T00:52:44.148Z,40.15
2023-01-17T00:55:11.204Z,40.22
2023-01-17T00:57:38.284Z,40.17
2023-01-17T01:00:06.687Z,40.24
2023-01-17T01:02:34.573Z,40.16
2023-01-17T01:05:02.193Z,40.18
2023-01-17T01:07:30.684Z,40.24
2023-01-17T01:09:57.766Z,40.50
2023-01-17T01:12:24.860Z,40.45
2023-01-17T01:14:51.961Z,40.53
2023-01-17T01:17:19.094Z,40.43
2023-01-17T01:19:46.186Z,40.42
2023-01-17T01:22:13.563Z,40.61
2023-01-17T01:24:42.198Z,40.42
2023-01-17T01:27:09.411Z,40.50
2023-01-17T01:29:36.503Z,40.35
2023-01-17T01:32:03.688Z,40.24
2023-01-17T01:34:31.210Z,40.23
2023-01-17T01:36:58.391Z,40.32
2023-01-17T01:39:25.484Z,40.34
2023-01-17T01:41:53.890Z,40.47
2023-01-17T01:44:44.957Z,40.27
2023-01-17T01:47:15.638Z,40.35
2023-01-17T01:49:43.386Z,40.30
2023-01-17T01:52:11.846Z,40.34
2023-01-17T01:54:43.808Z,40.32
2023-01-17T01:57:16.096Z,40.22
2023-01-17T01:59:48.839Z,40.16
2023-01-17T02:02:16.683Z,40.29
2023-01-17T02:04:45.058Z,40.32
2023-01-17T02:07:17.432Z,40.66
2023-01-17T02:09:45.413Z,40.39
2023-01-17T02:12:14.236Z,40.52
2023-01-17T02:14:41.329Z,40.59
2023-01-17T02:17:17.836Z,40.58
2023-01-17T02:20:18.615Z,40.56
2023-01-17T02:23:33.346Z,40.49
2023-01-17T02:26:17.922Z,40.37
2023-01-17T02:28:57.311Z,40.49
2023-01-17T02:31:29.728Z,40.30
2023-01-17T02:34:06.687Z,40.34
2023-01-17T02:36:38.429Z,40.45
2023-01-17T02:39:11.826Z,40.48
2023-01-17T02:41:41.515Z,40.44
2023-01-17T02:44:09.754Z,40.43
2023-01-17T02:46:45.497Z,39.97
2023-01-17T02:49:13.264Z,39.65
2023-01-17T02:51:56.147Z,39.26
2023-01-17T02:54:54.342Z,38.71
2023-01-17T02:57:41.829Z,38.63
2023-01-17T03:00:20.513Z,38.91
2023-01-17T03:02:58.811Z,39.04
2023-01-17T03:05:30.728Z,39.21
2023-01-17T03:07:59.261Z,39.00
2023-01-17T03:10:26.372Z,38.86
2023-01-17T03:12:57.456Z,38.85
2023-01-17T03:15:24.945Z,38.79
2023-01-17T03:17:58.541Z,38.73
2023-01-17T03:20:25.653Z,38.82
2023-01-17T03:22:52.804Z,38.79
2023-01-17T03:25:20.131Z,38.89
2023-01-17T03:27:47.381Z,38.92
2023-01-17T03:30:14.707Z,39.17
2023-01-17T03:32:42.021Z,39.04
2023-01-17T03:35:10.979Z,39.03
2023-01-17T03:37:38.041Z,39.07
2023-01-17T03:40:06.540Z,38.90
2023-01-17T03:42:33.745Z,38.58
2023-01-17T03:45:01.113Z,38.46
2023-01-17T03:47:28.249Z,38.60
2023-01-17T03:49:55.736Z,38.44
2023-01-17T03:52:24.257Z,38.55
2023-01-17T03:54:51.356Z,38.70
2023-01-17T03:57:18.447Z,38.76
2023-01-17T03:59:45.511Z,38.93
2023-01-17T04:02:12.952Z,38.76
2023-01-17T04:04:40.246Z,38.87
2023-01-17T04:07:07.396Z,38.98
2023-01-17T04:09:36.093Z,39.18
2023-01-17T04:12:03.461Z,38.96
2023-01-17T04:14:30.847Z,39.00
2023-01-17T04:16:58.117Z,39.11
2023-01-17T04:19:25.406Z,39.03
2023-01-17T04:21:52.490Z,39.14
2023-01-17T04:24:19.655Z,39.15
2023-01-17T04:26:48.275Z,39.37
2023-01-17T04:29:15.336Z,39.54
2023-01-17T04:31:42.659Z,39.59
2023-01-17T04:34:10.171Z,39.40
2023-01-17T04:36:37.241Z,39.40
2023-01-17T04:39:04.595Z,39.29
2023-01-17T04:41:31.735Z,39.13
2023-01-17T04:44:00.339Z,39.28
2023-01-17T04:46:27.556Z,39.29
2023-01-17T04:48:54.729Z,39.32
2023-01-17T04:51:22.587Z,39.33
2023-01-17T04:53:49.659Z,39.24
2023-01-17T04:56:16.874Z,41.00
2023-01-17T04:58:43.932Z,39.97
2023-01-17T05:01:12.391Z,40.47
2023-01-17T05:03:39.512Z,40.17
2023-01-17T05:06:06.635Z,40.10
2023-01-17T05:08:33.683Z,39.94
2023-01-17T05:11:00.817Z,39.63
2023-01-17T05:13:27.912Z,39.57
2023-01-17T05:15:56.305Z,39.37
2023-01-17T05:18:24.848Z,39.48
2023-01-17T05:20:51.933Z,39.44
2023-01-17T05:23:19.027Z,39.24
2023-01-17T05:25:46.109Z,39.38
2023-01-17T05:28:13.771Z,39.55
2023-01-17T05:30:40.953Z,39.52
2023-01-17T05:33:08.080Z,39.58
2023-01-17T05:35:36.535Z,39.76
2023-01-17T05:38:03.661Z,39.79
2023-01-17T05:40:32.359Z,39.83
2023-01-17T05:43:00.946Z,39.98
2023-01-17T05:45:30.522Z,40.32
2023-01-17T05:47:58.274Z,40.36
2023-01-17T05:50:28.528Z,40.39
2023-01-17T05:52:59.053Z,40.32
2023-01-17T05:55:27.945Z,40.41
2023-01-17T05:57:55.292Z,40.38
2023-01-17T06:00:22.985Z,40.12
2023-01-17T06:02:52.450Z,40.00
2023-01-17T06:05:19.559Z,40.05
2023-01-17T06:07:47.174Z,40.09
2023-01-17T06:10:16.830Z,39.93
2023-01-17T06:12:45.390Z,40.16
2023-01-17T06:15:14.013Z,40.16
2023-01-17T06:17:41.535Z,39.95
2023-01-17T06:20:11.141Z,39.99
2023-01-17T06:22:38.281Z,40.10
2023-01-17T06:25:05.816Z,40.08
2023-01-17T06:27:34.234Z,40.05
2023-01-17T06:30:01.350Z,40.07
2023-01-17T06:32:28.483Z,40.09
2023-01-17T06:34:55.650Z,40.09
2023-01-17T06:37:22.741Z,40.20
2023-01-17T06:39:49.815Z,40.29
2023-01-17T06:42:16.912Z,40.27
2023-01-17T06:44:45.329Z,40.26
2023-01-17T06:47:12.386Z,40.30
2023-01-17T06:49:39.489Z,40.27
2023-01-17T06:52:06.617Z,40.21
2023-01-17T06:54:33.688Z,40.21
2023-01-17T06:57:00.743Z,40.32
2023-01-17T06:59:27.833Z,40.05
2023-01-17T07:01:56.225Z,40.17
2023-01-17T07:04:23.288Z,40.01
2023-01-17T07:06:50.379Z,40.05
2023-01-17T07:09:17.485Z,40.18
2023-01-17T07:11:44.555Z,40.16
2023-01-17T07:14:12.971Z,40.07
2023-01-17T07:16:40.080Z,40.15
2023-01-17T07:19:08.605Z,40.07
2023-01-17T07:21:35.750Z,40.05
2023-01-17T07:24:02.863Z,40.01
2023-01-17T07:26:29.986Z,39.96
2023-01-17T07:28:58.132Z,40.09
2023-01-17T07:31:25.256Z,40.18
2023-01-17T07:33:52.404Z,40.09
2023-01-17T07:36:20.841Z,40.32
2023-01-17T07:38:47.896Z,40.27
2023-01-17T07:41:14.977Z,40.23
2023-01-17T07:43:42.061Z,40.29
2023-01-17T07:46:09.205Z,39.95
2023-01-17T07:48:36.290Z,40.10
2023-01-17T07:51:03.629Z,40.31
2023-01-17T07:53:32.014Z,40.01
2023-01-17T07:56:01.114Z,39.94
2023-01-17T07:58:28.571Z,39.85
2023-01-17T08:01:01.423Z,39.90
2023-01-17T08:03:28.723Z,39.95
2023-01-17T08:05:56.140Z,39.88
2023-01-17T08:08:23.323Z,39.99
2023-01-17T08:10:51.842Z,39.84
2023-01-17T08:13:18.997Z,39.93
2023-01-17T08:15:48.079Z,39.88
2023-01-17T08:18:15.297Z,39.84
2023-01-17T08:20:43.258Z,39.87
2023-01-17T08:23:10.381Z,40.01
2023-01-17T08:25:37.818Z,40.02
2023-01-17T08:28:06.303Z,40.08
2023-01-17T08:30:33.381Z,40.25
2023-01-17T08:33:00.502Z,40.12
2023-01-17T08:35:27.821Z,40.35
2023-01-17T08:37:55.932Z,40.25
2023-01-17T08:40:23.890Z,40.38
2023-01-17T08:42:54.575Z,40.37
2023-01-17T08:45:23.258Z,40.02
2023-01-17T08:47:51.108Z,40.07
2023-01-17T08:50:18.634Z,40.12
2023-01-17T08:52:45.820Z,40.03
2023-01-17T08:55:12.872Z,39.86
2023-01-17T08:57:39.938Z,39.68
2023-01-17T09:00:08.319Z,39.54
2023-01-17T09:02:36.715Z,39.39
2023-01-17T09:05:04.156Z,39.35
2023-01-17T09:07:31.257Z,39.25
2023-01-17T09:09:58.363Z,39.25
2023-01-17T09:12:25.535Z,39.20
2023-01-17T09:14:52.650Z,39.13
2023-01-17T09:17:19.717Z,38.93
2023-01-17T09:19:48.140Z,39.14
2023-01-17T09:22:15.426Z,39.00
2023-01-17T09:24:42.485Z,38.89
2023-01-17T09:27:09.589Z,39.03
2023-01-17T09:29:36.748Z,39.15
2023-01-17T09:32:04.257Z,39.11
2023-01-17T09:34:31.810Z,39.74
2023-01-17T09:37:00.238Z,39.37
2023-01-17T09:39:27.335Z,39.57
2023-01-17T09:42:00.704Z,39.55
2023-01-17T09:44:32.521Z,39.60
2023-01-17T09:47:11.338Z,39.51
2023-01-17T09:49:41.947Z,39.58
2023-01-17T09:52:13.823Z,39.66
2023-01-17T09:54:42.945Z,39.63
2023-01-17T09:57:22.698Z,39.69
2023-01-17T10:00:03.316Z,39.60
2023-01-17T10:03:02.086Z,39.46
2023-01-17T10:05:42.616Z,39.59
2023-01-17T10:08:25.223Z,39.68
2023-01-17T10:11:06.881Z,39.57
2023-01-17T10:13:44.658Z,39.64
2023-01-17T10:16:31.388Z,39.75
2023-01-17T10:19:21.810Z,40.04
2023-01-17T10:21:58.720Z,39.94
2023-01-17T10:24:53.654Z,39.76
2023-01-17T10:27:23.055Z,39.69
2023-01-17T10:29:51.303Z,39.46
2023-01-17T10:32:22.631Z,39.41
2023-01-17T10:34:51.947Z,39.48
2023-01-17T10:37:24.211Z,39.24
2023-01-17T10:39:55.775Z,39.43
2023-01-17T10:42:26.824Z,39.37
2023-01-17T10:45:03.972Z,39.10
2023-01-17T10:47:34.607Z,38.97
2023-01-17T10:50:04.203Z,38.89
2023-01-17T10:52:42.412Z,39.06
2023-01-17T10:55:22.573Z,39.04
2023-01-17T10:57:50.949Z,38.81
2023-01-17T11:00:28.698Z,38.97
2023-01-17T11:02:55.980Z,38.93
2023-01-17T11:05:26.599Z,39.03
2023-01-17T11:07:57.776Z,39.06
2023-01-17T11:10:36.190Z,39.41
2023-01-17T11:13:04.828Z,39.40
2023-01-17T11:15:36.899Z,39.53
2023-01-17T11:18:14.700Z,39.56
2023-01-17T11:20:42.051Z,39.64
2023-01-17T11:23:15.247Z,39.54
2023-01-17T11:25:51.115Z,39.57
2023-01-17T11:28:22.979Z,39.61
2023-01-17T11:30:55.018Z,39.52
2023-01-17T11:33:39.642Z,39.49
2023-01-17T11:36:16.011Z,39.52
2023-01-17T11:38:54.514Z,39.43
2023-01-17T11:41:24.104Z,39.40
2023-01-17T11:43:53.190Z,39.62
2023-01-17T11:46:20.682Z,39.45
2023-01-17T11:48:50.641Z,39.46
2023-01-17T11:51:25.715Z,39.37
2023-01-17T11:53:54.336Z,39.42
2023-01-17T11:56:30.647Z,39.34
2023-01-17T11:59:17.879Z,39.38
2023-01-17T12:01:50.497Z,39.37
2023-01-17T12:04:27.237Z,39.53
2023-01-17T12:07:09.798Z,39.59
2023-01-17T12:09:43.251Z,39.43
2023-01-17T12:12:22.196Z,39.44
2023-01-17T12:15:04.625Z,39.52
2023-01-17T12:17:52.225Z,39.52
2023-01-17T12:20:25.992Z,39.46
2023-01-17T12:23:19.652Z,39.28
2023-01-17T12:25:55.409Z,39.22
2023-01-17T12:28:44.741Z,39.30
2023-01-17T12:31:23.831Z,39.28
2023-01-17T12:33:55.501Z,39.30
2023-01-17T12:36:40.356Z,39.31
2023-01-17T12:39:09.399Z,39.58
2023-01-17T12:41:50.842Z,39.32
2023-01-17T12:44:29.644Z,39.41
2023-01-17T12:47:00.544Z,39.27
2023-01-17T12:49:40.670Z,39.42
2023-01-17T12:52:18.774Z,39.35
2023-01-17T12:54:50.314Z,39.38
2023-01-17T12:57:22.072Z,39.40
2023-01-17T12:59:58.167Z,39.60
2023-01-17T13:02:31.697Z,39.49
2023-01-17T13:05:07.296Z,39.51
2023-01-17T13:07:44.050Z,39.46
2023-01-17T13:10:24.090Z,39.34
2023-01-17T13:12:54.288Z,39.32
2023-01-17T13:15:27.103Z,39.14
2023-01-17T13:18:04.601Z,39.23
2023-01-17T13:20:47.743Z,39.13
2023-01-17T13:23:27.265Z,39.09
2023-01-17T13:25:55.059Z,39.13
2023-01-17T13:28:35.830Z,39.10
2023-01-17T13:31:41.325Z,39.11
2023-01-17T13:34:31.362Z,39.22
2023-01-17T13:37:16.005Z,39.11
2023-01-17T13:39:50.102Z,39.27
2023-01-17T13:42:24.018Z,39.15
2023-01-17T13:44:51.552Z,39.17
2023-01-17T13:47:43.804Z,39.21
2023-01-17T13:50:48.985Z,39.14
2023-01-17T13:53:55.597Z,39.23
2023-01-17T13:56:34.034Z,39.25
2023-01-17T13:59:28.399Z,39.33
2023-01-17T14:01:56.406Z,39.46
2023-01-17T14:04:45.759Z,39.42
2023-01-17T14:07:24.498Z,39.19
2023-01-17T14:09:51.782Z,39.20
2023-01-17T14:12:30.787Z,39.11
2023-01-17T14:15:01.087Z,39.01
2023-01-17T14:17:49.801Z,39.12
2023-01-17T14:20:50.072Z,39.18
2023-01-17T14:23:25.864Z,39.21
2023-01-17T14:25:53.500Z,39.11
2023-01-17T14:28:28.471Z,39.04
2023-01-17T14:30:56.532Z,38.86
2023-01-17T14:33:28.579Z,39.05
2023-01-17T14:36:00.021Z,39.01
2023-01-17T14:38:29.973Z,39.09
2023-01-17T14:41:01.173Z,39.08
2023-01-17T14:43:30.903Z,39.05
2023-01-17T14:46:00.359Z,39.17
2023-01-17T14:48:28.640Z,39.18
2023-01-17T14:50:57.387Z,39.26
2023-01-17T14:53:25.469Z,39.23
2023-01-17T14:55:56.472Z,39.32
2023-01-17T14:58:26.169Z,39.20
2023-01-17T15:00:57.399Z,39.30
2023-01-17T15:03:24.691Z,39.15
2023-01-17T15:05:53.924Z,38.95
2023-01-17T15:08:23.564Z,39.01
2023-01-17T15:10:55.457Z,38.98
2023-01-17T15:13:42.924Z,38.94
2023-01-17T15:16:19.497Z,39.05
2023-01-17T15:18:46.946Z,39.04
2023-01-17T15:21:16.996Z,38.93
2023-01-17T15:23:47.093Z,39.02
2023-01-17T15:26:17.905Z,39.00
2023-01-17T15:28:45.743Z,39.02
2023-01-17T15:31:15.261Z,39.02
2023-01-17T15:33:45.091Z,39.06
2023-01-17T15:36:23.214Z,39.07
2023-01-17T15:38:55.483Z,39.00
2023-01-17T15:41:25.307Z,39.07
2023-01-17T15:43:52.396Z,38.88
2023-01-17T15:46:22.450Z,38.49
2023-01-17T15:48:49.973Z,38.45
2023-01-17T15:51:30.594Z,37.92
2023-01-17T15:53:57.752Z,37.30
2023-01-17T15:56:32.278Z,36.88
2023-01-17T15:59:30.268Z,37.03
2023-01-17T16:01:58.257Z,38.77
2023-01-17T16:04:27.204Z,48.79
2023-01-17T16:06:54.643Z,50.80
2023-01-17T16:09:23.007Z,50.53
2023-01-17T16:11:51.414Z,46.44
2023-01-17T16:14:18.520Z,45.44
2023-01-17T16:16:52.402Z,47.73
2023-01-17T16:19:19.635Z,45.65
2023-01-17T16:21:46.695Z,41.91
2023-01-17T16:24:14.088Z,41.87
2023-01-17T16:26:41.187Z,41.46
2023-01-17T16:29:09.577Z,41.44
2023-01-17T16:31:36.656Z,41.46
2023-01-17T16:34:09.885Z,42.00
2023-01-17T16:36:37.018Z,41.58
2023-01-17T16:39:04.502Z,41.58
2023-01-17T16:41:32.001Z,41.50
2023-01-17T16:44:01.208Z,41.56
2023-01-17T16:46:30.036Z,41.43
2023-01-17T16:48:59.454Z,41.28
2023-01-17T16:51:26.591Z,41.24
2023-01-17T16:53:53.737Z,41.10
2023-01-17T16:56:20.869Z,41.17
2023-01-17T16:58:47.987Z,41.08
2023-01-17T17:01:17.230Z,40.97
2023-01-17T17:03:46.460Z,41.07
2023-01-17T17:06:14.193Z,40.81
2023-01-17T17:08:41.658Z,40.87
2023-01-17T17:11:10.430Z,40.82
2023-01-17T17:13:37.589Z,40.68
2023-01-17T17:16:09.911Z,40.81
2023-01-17T17:18:37.038Z,40.80
2023-01-17T17:21:05.527Z,40.73
2023-01-17T17:23:32.599Z,40.88
2023-01-17T17:25:59.725Z,41.15
2023-01-17T17:28:26.805Z,41.11
2023-01-17T17:31:02.270Z,41.05
2023-01-17T17:33:29.398Z,41.00
2023-01-17T17:36:01.987Z,41.05
2023-01-17T17:38:30.594Z,40.88
2023-01-17T17:41:04.740Z,40.88
2023-01-17T17:43:35.707Z,40.66
2023-01-17T17:46:02.852Z,40.33
2023-01-17T17:48:30.070Z,40.32
2023-01-17T17:50:59.575Z,40.12
2023-01-17T17:53:27.058Z,40.01
2023-01-17T17:55:55.748Z,40.11
2023-01-17T17:58:23.127Z,40.00
2023-01-17T18:00:50.247Z,40.46
2023-01-17T18:03:17.341Z,40.47
2023-01-17T18:05:44.430Z,40.46
2023-01-17T18:08:11.493Z,40.40
2023-01-17T18:10:38.891Z,40.08
2023-01-17T18:13:07.585Z,39.99
2023-01-17T18:15:34.737Z,39.92
2023-01-17T18:18:01.834Z,40.36
2023-01-17T18:20:28.957Z,40.47
2023-01-17T18:22:56.044Z,40.71
2023-01-17T18:25:23.121Z,40.74
2023-01-17T18:27:50.200Z,40.63
2023-01-17T18:30:18.932Z,40.62
2023-01-17T18:32:48.213Z,40.47
2023-01-17T18:35:15.429Z,40.55
2023-01-17T18:37:42.498Z,40.42
2023-01-17T18:40:11.012Z,40.44
2023-01-17T18:42:38.102Z,40.39
2023-01-17T18:45:06.411Z,40.52
2023-01-17T18:47:34.816Z,40.49
2023-01-17T18:50:02.065Z,40.22
2023-01-17T18:52:29.171Z,40.16
2023-01-17T18:54:56.252Z,39.76
2023-01-17T18:57:23.397Z,39.79
2023-01-17T18:59:50.461Z,39.73
2023-01-17T19:02:17.519Z,39.96
2023-01-17T19:04:45.946Z,39.98
2023-01-17T19:07:13.010Z,39.83
2023-01-17T19:09:40.123Z,40.03
2023-01-17T19:12:07.602Z,39.92
2023-01-17T19:14:34.754Z,40.03
2023-01-17T19:17:01.866Z,40.31
2023-01-17T19:19:29.038Z,40.35
2023-01-17T19:21:57.440Z,40.23
2023-01-17T19:24:24.617Z,40.25
2023-01-17T19:26:51.713Z,40.21
2023-01-17T19:29:18.978Z,40.17
2023-01-17T19:31:46.074Z,40.11
2023-01-17T19:34:13.559Z,40.27
2023-01-17T19:36:40.918Z,40.14
2023-01-17T19:39:09.696Z,40.09
2023-01-17T19:41:40.726Z,40.13
2023-01-17T19:44:09.807Z,40.28
2023-01-17T19:46:37.249Z,40.27
2023-01-17T19:49:05.927Z,40.19
2023-01-17T19:51:33.036Z,40.48
2023-01-17T19:54:00.155Z,40.40
2023-01-17T19:56:29.446Z,40.46
2023-01-17T19:58:56.974Z,40.45
2023-01-17T20:01:26.105Z,40.57
2023-01-17T20:03:54.535Z,40.63
2023-01-17T20:06:24.457Z,40.50
2023-01-17T20:08:51.632Z,40.47
2023-01-17T20:11:20.240Z,40.51
2023-01-17T20:13:51.102Z,40.43
2023-01-17T20:16:18.395Z,40.47
2023-01-17T20:18:45.662Z,40.48
2023-01-17T20:21:15.284Z,40.40
2023-01-17T20:23:44.215Z,40.41
2023-01-17T20:26:11.797Z,40.37
2023-01-17T20:28:40.619Z,40.38
2023-01-17T20:31:10.680Z,40.51
2023-01-17T20:33:37.957Z,40.50
2023-01-17T20:36:10.735Z,40.51
2023-01-17T20:38:38.893Z,40.50
2023-01-17T20:41:06.146Z,40.47
2023-01-17T20:43:33.220Z,40.63
2023-01-17T20:46:00.395Z,40.49
2023-01-17T20:48:28.855Z,40.65
2023-01-17T20:50:55.959Z,40.66
2023-01-17T20:53:23.139Z,40.48
2023-01-17T20:55:55.983Z,40.66
2023-01-17T20:58:23.111Z,40.73
2023-01-17T21:00:50.360Z,40.74
2023-01-17T21:03:17.757Z,40.74
2023-01-17T21:05:46.160Z,40.82
2023-01-17T21:08:13.254Z,40.81
2023-01-17T21:10:45.669Z,40.73
2023-01-17T21:13:12.813Z,40.71
2023-01-17T21:15:42.569Z,40.50
2023-01-17T21:18:09.696Z,40.55
2023-01-17T21:20:36.781Z,40.58
2023-01-17T21:23:05.307Z,40.57
2023-01-17T21:25:32.383Z,40.50
2023-01-17T21:27:59.559Z,40.52
2023-01-17T21:30:26.734Z,40.50
2023-01-17T21:32:53.809Z,40.62
2023-01-17T21:35:20.922Z,40.62
2023-01-17T21:37:48.344Z,40.69
2023-01-17T21:40:16.970Z,40.63
2023-01-17T21:42:44.251Z,40.69
2023-01-17T21:45:11.609Z,40.56
2023-01-17T21:47:38.839Z,40.69
2023-01-17T21:50:06.577Z,40.89
2023-01-17T21:52:33.672Z,40.95
2023-01-17T21:55:00.737Z,40.87
2023-01-17T21:57:29.179Z,40.96
2023-01-17T21:59:56.380Z,41.09
2023-01-17T22:02:23.624Z,41.14
2023-01-17T22:04:50.719Z,40.77
2023-01-17T22:07:18.035Z,40.83
2023-01-17T22:09:45.091Z,40.70
2023-01-17T22:12:12.182Z,40.75
2023-01-17T22:14:40.600Z,40.68
2023-01-17T22:17:07.730Z,40.76
2023-01-17T22:19:34.829Z,40.76
2023-01-17T22:22:01.969Z,40.81
2023-01-17T22:24:29.032Z,40.83
2023-01-17T22:26:56.151Z,40.73
2023-01-17T22:29:23.449Z,40.89
2023-01-17T22:31:51.871Z,40.84
2023-01-17T22:34:19.045Z,40.78
2023-01-17T22:36:46.217Z,40.85
2023-01-17T22:39:13.478Z,40.85
2023-01-17T22:41:40.569Z,40.75
2023-01-17T22:44:07.715Z,41.00
2023-01-17T22:46:35.948Z,40.95
2023-01-17T22:49:05.279Z,40.98
2023-01-17T22:51:32.392Z,41.02
2023-01-17T22:54:00.372Z,41.11
2023-01-17T22:56:29.822Z,41.02
2023-01-17T22:58:57.686Z,40.91
2023-01-17T23:01:26.254Z,40.76
2023-01-17T23:03:55.336Z,40.85
2023-01-17T23:06:28.062Z,40.87
2023-01-17T23:08:56.823Z,40.84
2023-01-17T23:11:28.877Z,40.79
2023-01-17T23:13:55.936Z,40.81
2023-01-17T23:16:23.220Z,40.80
2023-01-17T23:18:50.339Z,40.96
2023-01-17T23:21:17.586Z,40.90
2023-01-17T23:23:46.003Z,40.86
2023-01-17T23:26:13.153Z,40.90
2023-01-17T23:28:40.205Z,40.89
2023-01-17T23:31:07.274Z,40.81
2023-01-17T23:33:34.400Z,40.86
2023-01-17T23:36:01.493Z,41.13
2023-01-17T23:38:28.559Z,41.24
2023-01-17T23:41:05.049Z,41.11
2023-01-17T23:43:32.508Z,41.25
2023-01-17T23:45:59.632Z,41.17
2023-01-17T23:48:27.794Z,41.27
2023-01-17T23:50:57.877Z,41.16
2023-01-17T23:53:25.187Z,41.08
2023-01-17T23:55:53.889Z,40.92
2023-01-17T23:58:24.780Z,40.81
